createdAt,value
2019-04-30T00:01:38.429Z,5.10
2019-04-30T00:04:21.351Z,5.00
2019-04-30T00:06:50.417Z,4.70
2019-04-30T00:09:22.354Z,5.50
2019-04-30T00:11:57.888Z,5.80
2019-04-30T00:14:21.977Z,5.47
2019-04-30T00:16:50.894Z,7.27
2019-04-30T00:19:20.034Z,6.83
2019-04-30T00:21:57.033Z,6.83
2019-04-30T00:24:19.653Z,6.17
2019-04-30T00:26:52.210Z,7.03
2019-04-30T00:29:26.932Z,8.63
2019-04-30T00:31:49.846Z,9.20
2019-04-30T00:34:18.680Z,8.27
2019-04-30T00:36:47.625Z,7.47
2019-04-30T00:39:16.810Z,7.87
2019-04-30T00:41:47.388Z,8.83
2019-04-30T00:44:19.892Z,8.10
2019-04-30T00:46:48.009Z,7.33
2019-04-30T00:49:22.852Z,8.13
2019-04-30T00:51:49.771Z,8.00
2019-04-30T00:54:22.556Z,7.20
2019-04-30T00:56:49.210Z,7.77
2019-04-30T00:59:18.137Z,9.00
2019-04-30T01:02:06.175Z,9.77
2019-04-30T01:04:40.454Z,10.30
2019-04-30T01:07:10.278Z,8.47
2019-04-30T01:09:46.512Z,9.20
2019-04-30T01:12:12.004Z,10.13
2019-04-30T01:14:41.138Z,10.60
2019-04-30T01:17:12.255Z,11.93
2019-04-30T01:19:40.859Z,12.37
2019-04-30T01:22:09.848Z,13.00
2019-04-30T01:24:38.898Z,5.23
2019-04-30T01:27:10.404Z,9.90
2019-04-30T01:29:44.142Z,11.07
2019-04-30T01:32:10.449Z,11.27
2019-04-30T01:34:44.227Z,10.60
2019-04-30T01:37:10.834Z,10.67
2019-04-30T01:39:39.781Z,10.43
2019-04-30T01:42:11.430Z,10.00
2019-04-30T01:44:43.365Z,9.00
2019-04-30T01:47:09.917Z,6.97
2019-04-30T01:49:42.716Z,6.90
2019-04-30T01:52:09.620Z,6.23
2019-04-30T01:54:39.182Z,7.43
2019-04-30T01:57:30.678Z,8.33
2019-04-30T02:00:24.543Z,8.67
2019-04-30T02:02:53.517Z,9.27
2019-04-30T02:05:22.586Z,9.60
2019-04-30T02:07:51.637Z,8.30
2019-04-30T02:10:20.781Z,9.70
2019-04-30T02:12:49.751Z,7.97
2019-04-30T02:15:19.234Z,7.67
2019-04-30T02:17:50.382Z,7.53
2019-04-30T02:20:19.551Z,7.53
2019-04-30T02:22:48.725Z,5.37
2019-04-30T02:25:19.399Z,7.23
2019-04-30T02:27:48.963Z,5.90
2019-04-30T02:30:20.943Z,5.40
2019-04-30T02:32:52.109Z,5.87
2019-04-30T02:35:40.878Z,5.80
2019-04-30T02:38:26.464Z,6.00
2019-04-30T02:40:56.436Z,6.20
2019-04-30T02:43:29.875Z,6.30
2019-04-30T02:45:59.934Z,4.53
2019-04-30T02:48:31.568Z,6.33
2019-04-30T02:51:03.547Z,6.43
2019-04-30T02:54:06.317Z,5.87
2019-04-30T02:56:35.361Z,5.63
2019-04-30T02:59:04.471Z,6.70
2019-04-30T03:01:33.410Z,6.17
2019-04-30T03:04:02.351Z,5.23
2019-04-30T03:06:31.196Z,6.33
2019-04-30T03:09:01.057Z,6.77
2019-04-30T03:11:30.473Z,5.87
2019-04-30T03:13:59.638Z,6.50
2019-04-30T03:16:40.094Z,5.83
2019-04-30T03:19:19.510Z,7.13
2019-04-30T03:21:54.778Z,6.80
2019-04-30T03:24:23.705Z,7.00
2019-04-30T03:26:52.542Z,7.20
2019-04-30T03:29:23.890Z,7.10
2019-04-30T03:31:52.768Z,7.33
2019-04-30T03:34:25.610Z,6.80
2019-04-30T03:36:52.586Z,6.07
2019-04-30T03:39:21.584Z,7.13
2019-04-30T03:41:50.583Z,7.50
2019-04-30T03:44:25.605Z,6.80
2019-04-30T03:46:50.138Z,7.17
2019-04-30T03:49:20.326Z,7.73
2019-04-30T03:51:50.024Z,7.70
2019-04-30T03:54:19.638Z,7.90
2019-04-30T03:56:50.299Z,8.70
2019-04-30T03:59:20.054Z,8.43
2019-04-30T04:02:20.567Z,8.30
2019-04-30T04:05:25.452Z,5.53
2019-04-30T04:08:19.652Z,9.33
2019-04-30T04:11:21.264Z,9.40
2019-04-30T04:13:50.282Z,6.50
2019-04-30T04:16:19.565Z,9.23
2019-04-30T04:18:50.101Z,9.40
2019-04-30T04:21:20.593Z,9.67
2019-04-30T04:23:50.003Z,6.53
2019-04-30T04:26:20.229Z,6.50
2019-04-30T04:28:49.909Z,7.83
2019-04-30T04:31:19.513Z,9.67
2019-04-30T04:33:49.626Z,8.97
2019-04-30T04:36:20.015Z,9.67
2019-04-30T04:38:50.651Z,9.53
2019-04-30T04:41:20.243Z,9.43
2019-04-30T04:43:50.360Z,10.33
2019-04-30T04:46:20.510Z,9.60
2019-04-30T04:48:49.837Z,8.90
2019-04-30T04:51:31.450Z,9.70
2019-04-30T04:53:50.031Z,10.67
2019-04-30T04:56:19.329Z,9.80
2019-04-30T04:58:50.218Z,8.00
2019-04-30T05:01:20.405Z,10.53
2019-04-30T05:03:49.482Z,10.23
2019-04-30T05:06:21.892Z,11.20
2019-04-30T05:08:49.361Z,10.80
2019-04-30T05:11:19.253Z,12.17
2019-04-30T05:13:49.039Z,10.50
2019-04-30T05:16:19.136Z,11.30
2019-04-30T05:18:48.869Z,11.37
2019-04-30T05:21:18.805Z,11.53
2019-04-30T05:23:49.211Z,11.80
2019-04-30T05:26:19.106Z,12.90
2019-04-30T05:28:51.100Z,8.47
2019-04-30T05:31:20.993Z,8.10
2019-04-30T05:33:49.572Z,11.83
2019-04-30T05:36:19.173Z,10.27
2019-04-30T05:38:48.750Z,11.30
2019-04-30T05:41:19.316Z,11.73
2019-04-30T05:43:48.853Z,12.27
2019-04-30T05:46:19.618Z,12.03
2019-04-30T05:48:49.528Z,12.53
2019-04-30T05:51:21.162Z,12.53
2019-04-30T05:53:49.614Z,12.47
2019-04-30T05:56:19.289Z,11.83
2019-04-30T05:58:49.463Z,12.27
2019-04-30T06:01:19.627Z,13.43
2019-04-30T06:03:48.844Z,13.13
2019-04-30T06:06:19.312Z,12.70
2019-04-30T06:09:14.935Z,7.33
2019-04-30T06:12:14.741Z,11.20
2019-04-30T06:14:49.874Z,13.70
2019-04-30T06:17:19.805Z,12.00
2019-04-30T06:19:51.447Z,12.07
2019-04-30T06:22:19.759Z,12.77
2019-04-30T06:24:49.533Z,13.63
2019-04-30T06:27:19.357Z,13.63
2019-04-30T06:29:49.073Z,13.70
2019-04-30T06:32:18.669Z,13.57
2019-04-30T06:34:49.868Z,13.40
2019-04-30T06:37:19.651Z,13.77
2019-04-30T06:39:50.089Z,14.63
2019-04-30T06:42:21.999Z,16.13
2019-04-30T06:44:51.569Z,8.90
2019-04-30T06:47:32.504Z,13.73
2019-04-30T06:49:52.001Z,14.70
2019-04-30T06:52:23.500Z,16.00
2019-04-30T06:54:51.711Z,11.97
2019-04-30T06:57:20.538Z,10.33
2019-04-30T06:59:51.512Z,13.17
2019-04-30T07:02:20.163Z,12.43
2019-04-30T07:04:49.412Z,13.43
2019-04-30T07:07:22.981Z,9.67
2019-04-30T07:10:16.919Z,12.87
2019-04-30T07:12:49.144Z,12.63
2019-04-30T07:15:19.634Z,6.00
2019-04-30T07:17:49.250Z,13.77
2019-04-30T07:20:19.152Z,8.83
2019-04-30T07:22:52.352Z,12.87
2019-04-30T07:25:19.547Z,12.07
2019-04-30T07:27:50.593Z,11.40
2019-04-30T07:30:19.830Z,9.77
2019-04-30T07:32:48.932Z,11.73
2019-04-30T07:35:19.509Z,13.07
2019-04-30T07:37:49.692Z,12.73
2019-04-30T07:40:19.213Z,12.70
2019-04-30T07:42:49.236Z,13.23
2019-04-30T07:45:19.452Z,12.73
2019-04-30T07:47:49.433Z,12.67
2019-04-30T07:50:21.399Z,13.97
2019-04-30T07:55:20.118Z,15.13
2019-04-30T07:57:50.586Z,14.57
2019-04-30T08:00:19.843Z,17.10
2019-04-30T08:03:00.037Z,16.83
2019-04-30T08:05:35.950Z,8.47
2019-04-30T08:08:20.221Z,16.63
2019-04-30T08:09:35.523Z,12.60
2019-04-30T08:10:35.737Z,17.07
2019-04-30T08:13:10.524Z,17.30
2019-04-30T08:15:35.526Z,16.50
2019-04-30T08:18:05.918Z,17.90
2019-04-30T08:20:35.006Z,18.20
2019-04-30T08:23:15.686Z,19.23
2019-04-30T08:25:34.736Z,15.50
2019-04-30T08:28:03.643Z,19.30
2019-04-30T08:30:32.518Z,17.67
2019-04-30T08:33:01.573Z,17.20
2019-04-30T08:35:30.504Z,14.97
2019-04-30T08:37:59.337Z,14.67
2019-04-30T08:40:29.719Z,9.60
2019-04-30T08:42:59.492Z,19.43
2019-04-30T08:45:31.057Z,15.03
2019-04-30T08:47:59.617Z,18.13
2019-04-30T08:50:29.706Z,18.97
2019-04-30T08:52:59.762Z,19.33
2019-04-30T08:55:30.365Z,17.93
2019-04-30T08:58:09.617Z,18.13
2019-04-30T09:00:30.797Z,18.30
2019-04-30T09:02:59.794Z,18.70
2019-04-30T09:05:49.790Z,15.20
2019-04-30T09:08:19.412Z,17.47
2019-04-30T09:10:49.059Z,18.90
2019-04-30T09:13:19.173Z,19.57
2019-04-30T09:15:49.229Z,19.37
2019-04-30T09:18:19.157Z,19.97
2019-04-30T09:20:49.504Z,17.20
2019-04-30T09:23:18.838Z,18.10
2019-04-30T09:25:49.613Z,16.03
2019-04-30T09:28:19.871Z,14.33
2019-04-30T09:30:49.282Z,12.37
2019-04-30T09:33:19.457Z,11.13
2019-04-30T09:35:49.536Z,7.93
2019-04-30T09:38:19.516Z,12.67
2019-04-30T09:40:50.591Z,11.33
2019-04-30T09:43:19.463Z,11.93
2019-04-30T09:45:49.758Z,7.60
2019-04-30T09:48:19.174Z,12.80
2019-04-30T09:50:49.705Z,9.80
2019-04-30T09:53:19.905Z,8.13
2019-04-30T09:55:49.609Z,9.13
2019-04-30T09:58:21.188Z,10.80
2019-04-30T10:00:50.377Z,9.30
2019-04-30T10:03:20.734Z,8.80
2019-04-30T10:05:50.143Z,8.67
2019-04-30T10:08:20.880Z,10.57
2019-04-30T10:11:09.663Z,9.97
2019-04-30T10:13:38.351Z,9.80
2019-04-30T10:16:15.419Z,8.13
2019-04-30T10:18:44.288Z,7.77
2019-04-30T10:21:13.210Z,8.03
2019-04-30T10:23:42.219Z,7.97
2019-04-30T10:26:11.229Z,7.37
2019-04-30T10:28:43.815Z,7.30
2019-04-30T10:31:12.992Z,7.97
2019-04-30T10:33:42.008Z,7.20
2019-04-30T10:36:11.102Z,7.80
2019-04-30T10:38:40.070Z,6.70
2019-04-30T10:41:09.165Z,7.73
2019-04-30T10:43:39.304Z,7.40
2019-04-30T10:46:09.814Z,8.03
2019-04-30T10:48:38.972Z,7.33
2019-04-30T10:51:09.056Z,7.43
2019-04-30T10:53:38.423Z,6.30
2019-04-30T10:56:09.589Z,5.80
2019-04-30T10:58:38.221Z,5.60
2019-04-30T11:01:09.244Z,5.17
2019-04-30T11:03:39.136Z,5.70
2019-04-30T11:08:51.502Z,5.83
2019-04-30T11:11:20.439Z,6.10
2019-04-30T11:13:49.422Z,5.70
2019-04-30T11:16:18.922Z,5.93
2019-04-30T11:18:48.446Z,6.80
2019-04-30T11:21:19.748Z,6.50
2019-04-30T11:23:49.478Z,6.47
2019-04-30T11:26:19.352Z,6.93
2019-04-30T11:28:49.037Z,6.93
2019-04-30T11:31:36.094Z,7.57
2019-04-30T11:34:06.582Z,7.03
2019-04-30T11:36:35.601Z,6.13
2019-04-30T11:39:08.635Z,7.90
2019-04-30T11:41:39.551Z,8.80
2019-04-30T11:44:09.286Z,7.20
2019-04-30T11:47:09.624Z,8.03
2019-04-30T11:49:38.885Z,8.90
2019-04-30T11:52:07.857Z,7.83
2019-04-30T11:54:48.481Z,8.27
2019-04-30T11:57:08.872Z,7.43
2019-04-30T11:59:39.530Z,7.20
2019-04-30T12:02:19.101Z,7.57
2019-04-30T12:04:49.482Z,8.13
2019-04-30T12:07:25.492Z,7.40
2019-04-30T12:10:16.556Z,8.03
2019-04-30T12:12:45.485Z,6.57
2019-04-30T12:15:14.578Z,8.30
2019-04-30T12:17:43.531Z,8.93
2019-04-30T12:20:12.593Z,8.37
2019-04-30T12:22:41.484Z,7.20
2019-04-30T12:25:10.461Z,7.53
2019-04-30T12:27:39.490Z,7.40
2019-04-30T12:30:09.528Z,6.87
2019-04-30T12:32:39.321Z,6.63
2019-04-30T12:35:08.897Z,7.10
2019-04-30T12:37:39.072Z,6.80
2019-04-30T12:40:10.808Z,5.03
2019-04-30T12:42:39.651Z,7.50
2019-04-30T12:45:09.495Z,6.63
2019-04-30T12:47:42.919Z,7.03
2019-04-30T12:50:39.223Z,7.10
2019-04-30T12:53:12.145Z,6.53
2019-04-30T12:56:09.920Z,7.07
2019-04-30T12:58:38.969Z,7.03
2019-04-30T13:01:09.042Z,6.37
2019-04-30T13:03:39.923Z,5.03
2019-04-30T13:06:11.095Z,5.40
2019-04-30T13:08:40.165Z,6.40
2019-04-30T13:11:12.847Z,6.30
2019-04-30T13:13:41.484Z,7.37
2019-04-30T13:16:10.984Z,5.07
2019-04-30T13:18:39.915Z,5.50
2019-04-30T13:21:08.948Z,6.50
2019-04-30T13:23:37.882Z,6.57
2019-04-30T13:26:08.803Z,6.37
2019-04-30T13:28:49.987Z,7.70
2019-04-30T13:31:19.310Z,5.90
2019-04-30T13:33:53.308Z,6.53
2019-04-30T13:36:22.995Z,7.20
2019-04-30T13:39:10.305Z,7.60
2019-04-30T13:41:46.138Z,7.73
2019-04-30T13:44:19.399Z,4.73
2019-04-30T13:46:48.138Z,8.60
2019-04-30T13:49:17.082Z,7.90
2019-04-30T13:51:46.005Z,7.77
2019-04-30T13:54:15.023Z,8.17
2019-04-30T13:56:43.939Z,7.67
2019-04-30T13:59:12.778Z,7.23
2019-04-30T14:01:41.812Z,8.50
2019-04-30T14:04:29.763Z,9.80
2019-04-30T14:07:14.961Z,8.97
2019-04-30T14:09:43.806Z,5.00
2019-04-30T14:12:12.706Z,9.33
2019-04-30T14:14:41.710Z,9.57
2019-04-30T14:17:10.689Z,8.43
2019-04-30T14:19:39.683Z,9.00
2019-04-30T14:22:09.856Z,8.67
2019-04-30T14:24:38.773Z,6.90
2019-04-30T14:27:09.022Z,7.63
2019-04-30T14:29:39.589Z,8.43
2019-04-30T14:32:08.766Z,6.13
2019-04-30T14:34:39.438Z,8.03
2019-04-30T14:37:08.381Z,8.87
2019-04-30T14:39:37.601Z,8.13
2019-04-30T14:42:10.302Z,6.90
2019-04-30T14:44:40.182Z,6.53
2019-04-30T14:47:30.361Z,9.40
2019-04-30T14:50:09.759Z,9.07
2019-04-30T14:53:03.951Z,8.77
2019-04-30T14:55:51.762Z,8.27
2019-04-30T14:58:49.216Z,8.33
2019-04-30T15:01:37.049Z,7.87
2019-04-30T15:04:06.055Z,7.80
2019-04-30T15:06:34.871Z,8.77
2019-04-30T15:09:04.677Z,7.93
2019-04-30T15:11:34.287Z,5.23
2019-04-30T15:14:03.273Z,6.10
2019-04-30T15:16:32.191Z,7.33
2019-04-30T15:19:01.054Z,6.63
2019-04-30T15:21:30.053Z,6.90
2019-04-30T15:24:06.207Z,7.50
2019-04-30T15:26:35.203Z,7.43
2019-04-30T15:29:11.730Z,7.97
2019-04-30T15:31:35.146Z,6.93
2019-04-30T15:34:11.106Z,4.87
2019-04-30T15:36:40.948Z,6.40
2019-04-30T15:39:30.849Z,6.83
2019-04-30T15:42:00.111Z,6.87
2019-04-30T15:44:29.110Z,7.50
2019-04-30T15:47:00.410Z,6.40
2019-04-30T15:49:28.878Z,6.13
2019-04-30T15:51:57.791Z,7.23
2019-04-30T15:54:26.801Z,5.00
2019-04-30T15:56:55.846Z,7.07
2019-04-30T15:59:35.414Z,6.10
2019-04-30T16:02:10.557Z,5.13
2019-04-30T16:04:57.262Z,7.97
2019-04-30T16:07:26.249Z,7.27
2019-04-30T16:10:20.634Z,8.60
2019-04-30T16:13:01.871Z,8.10
2019-04-30T16:15:30.890Z,9.47
2019-04-30T16:18:01.546Z,5.30
2019-04-30T16:20:30.454Z,8.40
2019-04-30T16:22:59.570Z,10.90
2019-04-30T16:25:30.306Z,5.33
2019-04-30T16:27:59.214Z,7.47
2019-04-30T16:30:28.914Z,8.97
2019-04-30T16:32:59.628Z,6.90
2019-04-30T16:35:29.532Z,7.00
2019-04-30T16:37:59.402Z,6.30
2019-04-30T16:40:29.052Z,8.00
2019-04-30T16:42:58.357Z,5.63
2019-04-30T16:45:28.980Z,8.43
2019-04-30T16:47:58.270Z,7.50
2019-04-30T16:50:27.219Z,6.80
2019-04-30T16:52:56.054Z,6.77
2019-04-30T16:55:24.922Z,6.37
2019-04-30T16:57:54.050Z,6.40
2019-04-30T17:00:24.634Z,7.03
2019-04-30T17:02:59.326Z,7.60
2019-04-30T17:05:40.330Z,7.30
2019-04-30T17:08:15.074Z,6.13
2019-04-30T17:10:52.995Z,5.50
2019-04-30T17:13:30.980Z,7.67
2019-04-30T17:16:06.939Z,6.50
2019-04-30T17:18:35.984Z,5.40
2019-04-30T17:21:04.978Z,5.80
2019-04-30T17:23:33.899Z,5.70
2019-04-30T17:26:02.902Z,5.53
2019-04-30T17:28:31.890Z,4.30
2019-04-30T17:31:00.764Z,5.70
2019-04-30T17:33:29.653Z,5.20
2019-04-30T17:35:58.665Z,4.83
2019-04-30T17:38:27.641Z,5.03
2019-04-30T17:40:56.607Z,4.83
2019-04-30T17:43:25.513Z,5.40
2019-04-30T17:45:54.461Z,5.00
2019-04-30T17:48:23.393Z,5.63
2019-04-30T17:50:52.554Z,4.70
2019-04-30T17:53:21.574Z,5.20
2019-04-30T17:55:50.615Z,5.17
2019-04-30T17:58:20.634Z,4.20
2019-04-30T18:00:53.782Z,5.03
2019-04-30T18:03:22.695Z,5.13
2019-04-30T18:05:51.589Z,4.50
2019-04-30T18:08:21.112Z,4.90
2019-04-30T18:10:50.325Z,4.70
2019-04-30T18:13:19.275Z,3.90
2019-04-30T18:15:48.452Z,4.50
2019-04-30T18:18:26.248Z,4.40
2019-04-30T18:21:09.039Z,5.03
2019-04-30T18:23:54.559Z,4.50
2019-04-30T18:26:23.575Z,4.37
2019-04-30T18:28:52.548Z,4.33
2019-04-30T18:31:21.478Z,4.43
2019-04-30T18:33:51.428Z,4.70
2019-04-30T18:36:20.632Z,4.07
2019-04-30T18:38:50.296Z,4.30
2019-04-30T18:41:19.536Z,4.50
2019-04-30T18:43:48.787Z,4.50
2019-04-30T18:46:19.159Z,5.10
2019-04-30T18:48:49.708Z,3.77
2019-04-30T18:51:32.878Z,4.70
2019-04-30T18:53:49.827Z,5.17
2019-04-30T18:56:19.192Z,4.70
2019-04-30T18:58:48.653Z,4.67
2019-04-30T19:01:18.042Z,5.03
2019-04-30T19:03:49.054Z,4.63
2019-04-30T19:06:25.768Z,4.90
2019-04-30T19:09:29.490Z,5.00
2019-04-30T19:12:25.783Z,4.83
2019-04-30T19:15:12.405Z,4.83
2019-04-30T19:17:53.693Z,5.30
2019-04-30T19:20:25.809Z,4.50
2019-04-30T19:22:54.717Z,5.33
2019-04-30T19:25:23.747Z,5.70
2019-04-30T19:27:52.647Z,6.07
2019-04-30T19:30:21.765Z,5.90
2019-04-30T19:32:50.665Z,3.80
2019-04-30T19:35:19.576Z,6.07
2019-04-30T19:37:48.772Z,5.10
2019-04-30T19:40:19.012Z,6.33
2019-04-30T19:42:50.752Z,5.27
2019-04-30T19:45:18.943Z,7.13
2019-04-30T19:47:48.975Z,6.70
2019-04-30T19:50:19.419Z,7.33
2019-04-30T19:52:48.562Z,7.37
2019-04-30T19:55:20.428Z,7.17
2019-04-30T19:57:48.389Z,6.10
2019-04-30T20:00:19.229Z,8.93
2019-04-30T20:02:48.658Z,10.73
2019-04-30T20:05:19.427Z,10.43
2019-04-30T20:07:49.330Z,9.27
2019-04-30T20:10:19.574Z,12.57
2019-04-30T20:12:49.752Z,8.87
2019-04-30T20:15:22.130Z,17.40
2019-04-30T20:17:49.985Z,17.37
2019-04-30T20:20:19.303Z,19.73
2019-04-30T20:22:48.231Z,15.83
2019-04-30T20:25:19.033Z,19.30
2019-04-30T20:27:49.580Z,20.00
2019-04-30T20:30:19.557Z,21.00
2019-04-30T20:32:49.061Z,20.10
2019-04-30T20:35:19.543Z,21.43
2019-04-30T20:38:06.277Z,18.97
2019-04-30T20:40:43.283Z,20.97
2019-04-30T20:48:51.849Z,17.57
2019-04-30T20:51:20.814Z,21.53
2019-04-30T20:53:49.918Z,11.07
2019-04-30T20:56:19.202Z,23.53
2019-04-30T20:58:55.622Z,22.13
2019-04-30T21:01:19.349Z,21.83
2019-04-30T21:03:48.626Z,22.87
2019-04-30T21:06:19.651Z,22.70
2019-04-30T21:08:48.213Z,10.40
2019-04-30T21:11:19.201Z,22.40
2019-04-30T21:13:49.129Z,22.97
2019-04-30T21:16:18.230Z,22.70
2019-04-30T21:18:47.185Z,24.57
2019-04-30T21:21:16.097Z,16.07
2019-04-30T21:23:45.004Z,22.00
2019-04-30T21:26:13.943Z,22.33
2019-04-30T21:28:42.881Z,15.90
2019-04-30T21:31:36.342Z,23.20
2019-04-30T21:34:29.326Z,21.70
2019-04-30T21:36:59.696Z,20.43
2019-04-30T21:39:28.695Z,20.27
2019-04-30T21:41:59.328Z,21.63
2019-04-30T21:44:28.293Z,21.03
2019-04-30T21:47:16.402Z,21.00
2019-04-30T21:49:45.290Z,20.50
2019-04-30T21:52:14.181Z,21.43
2019-04-30T21:54:43.118Z,21.70
2019-04-30T21:57:11.948Z,21.47
2019-04-30T21:59:40.886Z,20.33
2019-04-30T22:02:10.350Z,18.83
2019-04-30T22:04:39.301Z,20.53
2019-04-30T22:07:09.398Z,19.33
2019-04-30T22:09:38.820Z,19.87
2019-04-30T22:12:09.224Z,19.50
2019-04-30T22:14:38.557Z,20.10
2019-04-30T22:17:09.203Z,20.37
2019-04-30T22:19:38.340Z,19.47
2019-04-30T22:22:09.255Z,20.00
2019-04-30T22:24:38.848Z,20.07
2019-04-30T22:27:08.126Z,18.77
2019-04-30T22:29:39.914Z,19.43
2019-04-30T22:32:09.245Z,18.90
2019-04-30T22:34:38.357Z,18.77
2019-04-30T22:37:08.560Z,19.30
2019-04-30T22:39:45.536Z,19.17
2019-04-30T22:42:30.625Z,19.53
2019-04-30T22:45:00.274Z,19.13
2019-04-30T22:47:29.310Z,20.17
2019-04-30T22:49:58.225Z,10.00
2019-04-30T22:52:27.219Z,20.93
2019-04-30T22:54:56.210Z,19.10
2019-04-30T22:57:25.022Z,15.93
2019-04-30T22:59:53.981Z,17.87
2019-04-30T23:02:29.825Z,20.27
2019-04-30T23:04:59.099Z,20.40
2019-04-30T23:07:28.085Z,19.73
2019-04-30T23:09:57.056Z,21.10
2019-04-30T23:12:26.311Z,17.00
2019-04-30T23:14:55.163Z,17.43
2019-04-30T23:17:24.018Z,19.63
2019-04-30T23:19:53.068Z,19.60
2019-04-30T23:22:21.982Z,21.43
2019-04-30T23:24:50.882Z,20.90
2019-04-30T23:27:19.853Z,19.70
2019-04-30T23:29:48.859Z,18.60
2019-04-30T23:32:17.769Z,20.93
2019-04-30T23:34:46.607Z,20.83
2019-04-30T23:37:15.624Z,20.13
2019-04-30T23:39:44.546Z,21.97
2019-04-30T23:42:13.462Z,23.10
2019-04-30T23:44:42.283Z,21.30
2019-04-30T23:47:11.105Z,21.40
2019-04-30T23:49:39.964Z,17.30
2019-04-30T23:52:08.834Z,20.93
2019-04-30T23:54:37.783Z,20.90
2019-04-30T23:57:06.709Z,21.80
2019-04-30T23:59:35.555Z,20.73
